Terminal Aerodrome Forecast
Issued by NWS

Home | Current Version | Previous Version | Text Only | Print | Product List | Glossary On
Versions: 1 2 3 4 5 6 7 8 9 10 11 12 13 14 15 16 17 18 19 20 21 22 23 24 25 26 27 28 29 30 31 32
000
FTAK31 PAFA 022339
TAFAUN
TAF
PAUN 022339Z 0300/0324 08023G30KT P6SM BKN040
     FM030900 09020G28KT 4SM -FZRASN BKN025 OVC040
     FM031200 09018G26KT 2SM -SN BR OVC007
     FM032000 11012KT 2SM -SN OVC015=

USA.gov is the U.S. government's official web portal to all federal, state and local government web resources and services.